createdAt,value
2023-03-30T00:00:32.121Z,87.08
2023-03-30T00:01:32.090Z,86.68
2023-03-30T00:02:32.087Z,86.07
2023-03-30T00:03:32.073Z,86.68
2023-03-30T00:04:32.193Z,86.37
2023-03-30T00:05:32.052Z,85.35
2023-03-30T00:06:31.893Z,85.86
2023-03-30T00:07:31.854Z,85.86
2023-03-30T00:08:31.810Z,85.66
2023-03-30T00:09:31.773Z,85.96
2023-03-30T00:10:31.734Z,85.46
2023-03-30T00:11:31.713Z,85.25
2023-03-30T00:12:31.664Z,85.66
2023-03-30T00:13:31.612Z,85.66
2023-03-30T00:14:31.602Z,85.55
2023-03-30T00:15:31.531Z,86.07
2023-03-30T00:16:31.540Z,85.15
2023-03-30T00:17:31.500Z,85.35
2023-03-30T00:18:31.430Z,85.76
2023-03-30T00:19:31.384Z,85.55
2023-03-30T00:20:31.421Z,85.46
2023-03-30T00:21:31.305Z,85.66
2023-03-30T00:22:31.265Z,85.46
2023-03-30T00:23:31.220Z,86.07
2023-03-30T00:24:31.211Z,85.15
2023-03-30T00:25:31.169Z,84.84
2023-03-30T00:26:31.110Z,85.46
2023-03-30T00:27:31.066Z,84.64
2023-03-30T00:28:31.046Z,85.05
2023-03-30T00:29:30.990Z,84.23
2023-03-30T00:30:30.961Z,84.70
2023-03-30T00:31:30.913Z,84.95
2023-03-30T00:32:30.944Z,84.30
2023-03-30T00:33:44.808Z,84.74
2023-03-30T00:34:30.792Z,85.15
2023-03-30T00:35:30.841Z,84.64
2023-03-30T00:36:30.719Z,84.54
2023-03-30T00:37:30.662Z,84.64
2023-03-30T00:38:30.636Z,84.95
2023-03-30T00:39:30.589Z,84.54
2023-03-30T00:40:30.554Z,84.23
2023-03-30T00:41:30.506Z,85.15
2023-03-30T00:42:30.515Z,85.15
2023-03-30T00:43:30.435Z,84.74
2023-03-30T00:44:30.389Z,84.54
2023-03-30T00:45:30.363Z,84.28
2023-03-30T00:46:30.346Z,84.58
2023-03-30T00:47:30.287Z,84.38
2023-03-30T00:48:30.259Z,84.74
2023-03-30T00:49:30.188Z,84.13
2023-03-30T00:50:30.154Z,83.93
2023-03-30T00:51:30.117Z,83.53
2023-03-30T00:52:30.075Z,83.53
2023-03-30T00:53:30.052Z,83.38
2023-03-30T00:54:30.021Z,83.28
2023-03-30T00:55:29.952Z,82.67
2023-03-30T00:56:29.954Z,82.67
2023-03-30T00:57:30.022Z,82.92
2023-03-30T00:58:29.914Z,82.81
2023-03-30T00:59:29.795Z,82.71
2023-03-30T01:00:29.776Z,83.73
2023-03-30T01:01:29.791Z,83.42
2023-03-30T01:02:29.749Z,82.81
2023-03-30T01:03:29.858Z,82.81
2023-03-30T01:04:29.625Z,82.47
2023-03-30T01:05:29.584Z,82.00
2023-03-30T01:06:29.542Z,82.06
2023-03-30T01:07:29.505Z,81.05
2023-03-30T01:08:29.449Z,81.66
2023-03-30T01:09:29.414Z,81.56
2023-03-30T01:10:29.376Z,81.35
2023-03-30T01:11:29.338Z,81.56
2023-03-30T01:12:29.322Z,79.90
2023-03-30T01:13:29.270Z,80.60
2023-03-30T01:14:29.216Z,81.31
2023-03-30T01:15:29.181Z,80.84
2023-03-30T01:16:29.153Z,81.05
2023-03-30T01:17:29.159Z,80.54
2023-03-30T01:18:29.081Z,80.91
2023-03-30T01:19:29.021Z,81.11
2023-03-30T01:20:37.516Z,80.19
2023-03-30T01:21:29.965Z,81.21
2023-03-30T01:22:28.923Z,79.59
2023-03-30T01:23:29.528Z,80.10
2023-03-30T01:24:28.846Z,80.10
2023-03-30T01:25:28.788Z,80.19
2023-03-30T01:26:29.449Z,81.41
2023-03-30T01:27:28.749Z,79.69
2023-03-30T01:28:28.706Z,81.01
2023-03-30T01:29:28.631Z,81.01
2023-03-30T01:30:28.682Z,79.59
2023-03-30T01:31:28.670Z,80.19
2023-03-30T01:32:28.557Z,81.01
2023-03-30T01:33:28.721Z,79.99
2023-03-30T01:34:28.626Z,79.99
2023-03-30T01:35:28.456Z,81.31
2023-03-30T01:36:28.494Z,79.49
2023-03-30T01:37:28.377Z,79.99
2023-03-30T01:38:28.314Z,79.99
2023-03-30T01:39:28.955Z,79.90
2023-03-30T01:40:28.269Z,79.45
2023-03-30T01:41:29.088Z,78.84
2023-03-30T01:42:28.224Z,79.25
2023-03-30T01:43:28.182Z,79.25
2023-03-30T01:44:28.082Z,79.25
2023-03-30T01:45:28.065Z,79.25
2023-03-30T01:46:28.100Z,78.44
2023-03-30T01:47:28.042Z,78.64
2023-03-30T01:48:27.953Z,79.55
2023-03-30T01:49:27.879Z,79.14
2023-03-30T01:50:27.879Z,78.74
2023-03-30T01:51:30.608Z,78.94
2023-03-30T01:52:28.667Z,78.84
2023-03-30T01:53:27.809Z,78.53
2023-03-30T01:54:27.727Z,78.50
2023-03-30T01:55:27.683Z,77.83
2023-03-30T01:56:27.610Z,77.93
2023-03-30T01:57:27.661Z,78.09
2023-03-30T01:58:27.590Z,77.59
2023-03-30T01:59:27.474Z,76.87
2023-03-30T02:00:27.488Z,77.34
2023-03-30T02:01:27.491Z,76.98
2023-03-30T02:02:27.575Z,76.94
2023-03-30T02:03:28.380Z,77.38
2023-03-30T02:04:29.464Z,77.28
2023-03-30T02:05:29.372Z,77.18
2023-03-30T02:06:27.322Z,77.59
2023-03-30T02:07:27.969Z,77.69
2023-03-30T02:08:27.969Z,77.55
2023-03-30T02:09:27.234Z,77.25
2023-03-30T02:10:28.731Z,77.18
2023-03-30T02:11:27.562Z,77.04
2023-03-30T02:12:28.970Z,76.84
2023-03-30T02:13:27.016Z,76.98
2023-03-30T02:14:41.006Z,76.64
2023-03-30T02:16:26.872Z,77.14
2023-03-30T02:17:27.103Z,76.78
2023-03-30T02:18:28.471Z,76.94
2023-03-30T02:19:26.725Z,76.84
2023-03-30T02:20:26.691Z,75.93
2023-03-30T02:21:27.519Z,76.13
2023-03-30T02:22:26.826Z,76.50
2023-03-30T02:23:26.646Z,75.89
2023-03-30T02:24:28.483Z,75.79
2023-03-30T02:26:29.492Z,75.89
2023-03-30T02:27:29.484Z,75.89
2023-03-30T02:28:45.989Z,76.03
2023-03-30T02:29:34.021Z,76.03
2023-03-30T02:30:27.996Z,76.29
2023-03-30T02:31:33.215Z,76.20
2023-03-30T02:32:30.065Z,76.03
2023-03-30T02:44:33.328Z,76.23
2023-03-30T02:45:35.191Z,76.09
2023-03-30T02:46:35.288Z,76.40
2023-03-30T02:47:36.641Z,76.43
2023-03-30T02:48:47.672Z,76.33
2023-03-30T02:49:36.720Z,75.82
2023-03-30T02:53:23.194Z,76.54
2023-03-30T02:54:22.096Z,76.54
2023-03-30T02:55:29.687Z,76.13
2023-03-30T02:56:22.270Z,77.38
2023-03-30T02:57:23.777Z,77.18
2023-03-30T02:58:21.342Z,76.87
2023-03-30T02:59:21.944Z,76.84
2023-03-30T03:00:21.208Z,77.38
2023-03-30T03:01:21.820Z,77.28
2023-03-30T03:02:21.863Z,77.48
2023-03-30T03:03:21.037Z,77.69
2023-03-30T03:04:21.697Z,77.28
2023-03-30T03:07:01.237Z,77.14
2023-03-30T03:08:02.748Z,77.38
2023-03-30T03:08:29.215Z,77.28
2023-03-30T03:09:20.742Z,77.79
2023-03-30T03:10:20.709Z,77.08
2023-03-30T03:11:20.740Z,77.48
2023-03-30T03:12:20.656Z,77.14
2023-03-30T03:13:22.449Z,77.14
2023-03-30T03:14:25.726Z,77.14
2023-03-30T03:15:28.356Z,76.84
2023-03-30T03:16:21.733Z,77.28
2023-03-30T03:17:21.194Z,76.84
2023-03-30T03:18:22.213Z,77.38
2023-03-30T03:19:29.219Z,77.38
2023-03-30T03:20:22.214Z,77.18
2023-03-30T03:21:23.197Z,77.34
2023-03-30T03:22:22.704Z,77.38
2023-03-30T03:23:20.760Z,76.54
2023-03-30T03:24:20.172Z,77.34
2023-03-30T03:34:40.797Z,77.14
2023-03-30T03:35:41.724Z,77.28
2023-03-30T03:36:40.894Z,77.89
2023-03-30T03:37:40.773Z,76.98
2023-03-30T03:38:41.687Z,76.98
2023-03-30T03:39:40.800Z,77.55
2023-03-30T03:40:46.112Z,77.75
2023-03-30T03:41:45.609Z,77.79
2023-03-30T03:42:41.595Z,78.30
2023-03-30T03:43:40.401Z,78.60
2023-03-30T03:44:40.335Z,78.09
2023-03-30T03:45:40.506Z,78.19
2023-03-30T03:46:47.649Z,78.70
2023-03-30T03:47:46.633Z,79.21
2023-03-30T03:48:51.603Z,79.00
2023-03-30T03:49:48.098Z,78.30
2023-03-30T03:50:42.600Z,79.11
2023-03-30T03:51:42.600Z,78.30
2023-03-30T03:52:42.623Z,77.69
2023-03-30T03:53:43.614Z,78.30
2023-03-30T03:54:41.230Z,77.99
2023-03-30T03:55:40.611Z,77.99
2023-03-30T03:56:40.656Z,77.48
2023-03-30T03:57:39.980Z,77.79
2023-03-30T03:58:39.836Z,77.89
2023-03-30T03:59:41.600Z,78.60
2023-03-30T04:00:40.082Z,78.50
2023-03-30T04:01:40.004Z,79.21
2023-03-30T04:02:39.811Z,78.30
2023-03-30T04:03:40.722Z,77.99
2023-03-30T04:04:39.677Z,78.06
2023-03-30T04:05:40.306Z,78.60
2023-03-30T04:06:41.109Z,78.46
2023-03-30T04:07:39.489Z,78.19
2023-03-30T04:08:39.505Z,78.77
2023-03-30T04:09:43.609Z,78.19
2023-03-30T04:10:39.416Z,78.46
2023-03-30T04:11:39.352Z,77.75
2023-03-30T04:12:39.254Z,77.75
2023-03-30T04:13:39.228Z,78.56
2023-03-30T04:14:39.170Z,78.16
2023-03-30T04:15:39.162Z,77.75
2023-03-30T04:16:39.168Z,77.95
2023-03-30T04:17:39.123Z,78.26
2023-03-30T04:18:39.085Z,78.09
2023-03-30T04:19:39.006Z,78.36
2023-03-30T04:20:39.058Z,78.66
2023-03-30T04:21:39.608Z,78.77
2023-03-30T04:22:38.880Z,78.77
2023-03-30T04:26:29.393Z,78.80
2023-03-30T04:27:30.931Z,78.70
2023-03-30T04:28:29.514Z,77.99
2023-03-30T04:29:29.304Z,78.66
2023-03-30T04:30:29.937Z,78.77
2023-03-30T04:31:29.579Z,78.77
2023-03-30T04:32:29.194Z,77.99
2023-03-30T04:33:29.446Z,78.87
2023-03-30T04:34:29.068Z,78.66
2023-03-30T04:35:29.009Z,78.87
2023-03-30T04:36:28.978Z,78.70
2023-03-30T04:37:28.944Z,78.80
2023-03-30T04:38:28.900Z,78.50
2023-03-30T04:39:28.866Z,78.09
2023-03-30T04:40:28.843Z,79.07
2023-03-30T04:41:28.780Z,79.00
2023-03-30T04:42:28.748Z,79.07
2023-03-30T04:43:28.713Z,78.87
2023-03-30T04:44:28.667Z,78.77
2023-03-30T04:45:28.660Z,78.16
2023-03-30T04:46:28.605Z,78.77
2023-03-30T04:47:28.589Z,78.26
2023-03-30T04:48:28.534Z,77.51
2023-03-30T04:49:28.490Z,78.02
2023-03-30T04:50:28.460Z,77.41
2023-03-30T04:51:28.415Z,78.02
2023-03-30T04:52:28.361Z,77.31
2023-03-30T04:53:28.334Z,77.61
2023-03-30T04:54:29.215Z,78.12
2023-03-30T04:55:28.246Z,77.61
2023-03-30T04:56:28.212Z,77.82
2023-03-30T04:57:28.203Z,77.61
2023-03-30T04:58:28.131Z,77.82
2023-03-30T04:59:28.105Z,76.80
2023-03-30T05:00:28.053Z,77.31
2023-03-30T05:01:28.063Z,77.31
2023-03-30T05:02:28.153Z,77.01
2023-03-30T05:03:28.196Z,76.60
2023-03-30T05:04:29.536Z,77.82
2023-03-30T05:05:27.920Z,77.11
2023-03-30T05:06:28.842Z,78.42
2023-03-30T07:13:37.865Z,78.59
2023-03-30T07:14:28.897Z,78.08
2023-03-30T07:17:56.106Z,78.39
2023-03-30T07:18:56.056Z,78.39
2023-03-30T07:19:56.077Z,79.00
2023-03-30T07:22:55.929Z,78.59
2023-03-30T07:23:51.909Z,78.89
2023-03-30T07:24:53.026Z,79.00
2023-03-30T07:25:52.628Z,78.79
2023-03-30T07:26:51.575Z,79.20
2023-03-30T07:27:51.597Z,78.39
2023-03-30T07:28:52.160Z,79.20
2023-03-30T07:29:51.459Z,79.20
2023-03-30T07:30:51.455Z,78.49
2023-03-30T07:31:51.379Z,78.28
2023-03-30T07:32:51.623Z,78.59
2023-03-30T07:33:51.315Z,78.89
2023-03-30T07:34:51.274Z,79.20
2023-03-30T07:35:51.316Z,79.00
2023-03-30T07:36:51.226Z,78.93
2023-03-30T07:37:51.342Z,78.89
2023-03-30T07:38:51.132Z,79.94
2023-03-30T07:39:51.136Z,78.89
2023-03-30T07:40:51.055Z,78.89
2023-03-30T07:41:51.024Z,79.74
2023-03-30T07:42:50.965Z,79.24
2023-03-30T07:43:50.918Z,79.40
2023-03-30T07:44:51.024Z,79.20
2023-03-30T07:45:50.935Z,79.71
2023-03-30T07:46:50.902Z,79.50
2023-03-30T07:47:50.876Z,79.10
2023-03-30T07:48:51.480Z,78.59
2023-03-30T07:49:50.706Z,79.40
2023-03-30T07:50:50.684Z,79.60
2023-03-30T07:51:50.637Z,80.35
2023-03-30T07:52:50.661Z,81.06
2023-03-30T07:53:51.504Z,80.96
2023-03-30T07:54:50.551Z,81.91
2023-03-30T07:55:51.764Z,82.31
2023-03-30T07:56:50.436Z,83.77
2023-03-30T07:57:50.434Z,83.98
2023-03-30T07:58:50.351Z,84.93
2023-03-30T07:59:50.446Z,85.53
2023-03-30T08:00:50.293Z,86.49
2023-03-30T08:01:50.267Z,87.81
2023-03-30T08:02:50.292Z,88.42
2023-03-30T08:03:50.244Z,89.07
2023-03-30T08:04:50.334Z,89.83
2023-03-30T08:05:50.137Z,90.37
2023-03-30T08:06:50.048Z,91.90
2023-03-30T08:07:49.997Z,92.55
2023-03-30T08:08:49.961Z,93.87
2023-03-30T08:09:49.998Z,93.87
2023-03-30T08:10:49.937Z,94.23
2023-03-30T08:11:49.875Z,95.04
2023-03-30T08:12:49.840Z,95.24
2023-03-30T08:13:50.489Z,95.24
2023-03-30T08:14:50.503Z,96.15
2023-03-30T08:15:50.527Z,96.20
2023-03-30T08:16:49.882Z,96.46
2023-03-30T08:17:49.720Z,97.02
2023-03-30T08:18:49.579Z,97.12
2023-03-30T08:19:49.576Z,96.97
2023-03-30T08:20:49.553Z,97.12
2023-03-30T08:21:49.581Z,96.61
2023-03-30T08:22:49.445Z,96.81
2023-03-30T08:23:49.416Z,96.92
2023-03-30T08:24:49.993Z,97.32
2023-03-30T08:25:50.074Z,96.97
2023-03-30T08:26:49.289Z,97.28
2023-03-30T08:27:49.296Z,96.87
2023-03-30T08:28:49.218Z,96.36
2023-03-30T08:29:49.996Z,95.70
2023-03-30T08:30:49.135Z,95.46
2023-03-30T08:31:49.142Z,95.05
2023-03-30T08:32:49.114Z,95.66
2023-03-30T08:33:48.989Z,95.36
2023-03-30T08:34:48.964Z,95.36
2023-03-30T08:35:48.955Z,95.25
2023-03-30T08:36:48.865Z,94.24
2023-03-30T08:37:48.823Z,94.29
2023-03-30T08:38:48.851Z,94.24
2023-03-30T08:39:48.861Z,93.68
2023-03-30T08:40:48.709Z,93.59
2023-03-30T08:41:48.674Z,92.52
2023-03-30T08:42:49.155Z,91.56
2023-03-30T08:43:48.608Z,91.22
2023-03-30T08:44:48.573Z,89.86
2023-03-30T08:45:48.597Z,89.76
2023-03-30T08:46:48.487Z,89.01
2023-03-30T08:47:48.504Z,88.20
2023-03-30T08:48:48.422Z,88.86
2023-03-30T08:49:48.357Z,86.94
2023-03-30T08:50:48.334Z,85.21
2023-03-30T08:51:48.299Z,86.22
2023-03-30T08:52:48.260Z,84.63
2023-03-30T08:53:48.218Z,82.99
2023-03-30T08:54:48.168Z,81.46
2023-03-30T08:55:48.191Z,79.36
2023-03-30T08:56:48.207Z,77.62
2023-03-30T08:57:48.100Z,76.43
2023-03-30T08:58:48.101Z,76.50
2023-03-30T08:59:47.973Z,74.95
2023-03-30T09:00:47.958Z,74.52
2023-03-30T09:01:48.003Z,73.27
2023-03-30T09:02:49.032Z,74.88
2023-03-30T09:04:49.575Z,72.50
2023-03-30T09:05:49.654Z,72.30
2023-03-30T09:06:56.025Z,71.30
2023-03-30T09:08:17.543Z,72.40
2023-03-30T09:08:51.515Z,72.13
2023-03-30T09:09:49.324Z,72.97
2023-03-30T09:10:47.700Z,73.24
2023-03-30T09:11:47.611Z,74.79
2023-03-30T09:12:47.583Z,75.36
2023-03-30T09:13:47.582Z,77.31
2023-03-30T09:14:47.565Z,77.82
2023-03-30T09:15:47.479Z,77.04
2023-03-30T09:16:47.507Z,76.34
2023-03-30T09:17:47.420Z,78.46
2023-03-30T09:18:48.070Z,78.26
2023-03-30T09:19:47.363Z,78.09
2023-03-30T09:20:47.284Z,78.30
2023-03-30T09:21:47.281Z,80.93
2023-03-30T09:22:47.222Z,80.46
2023-03-30T09:23:47.187Z,81.41
2023-03-30T09:24:47.217Z,83.37
2023-03-30T09:25:47.258Z,87.04
2023-03-30T09:26:49.527Z,89.41
2023-03-30T09:27:50.044Z,91.52
2023-03-30T09:36:24.334Z,94.98
2023-03-30T09:37:24.290Z,95.29
2023-03-30T09:38:23.726Z,95.14
2023-03-30T09:39:23.633Z,94.84
2023-03-30T09:40:27.702Z,94.23
2023-03-30T09:41:23.507Z,94.23
2023-03-30T09:42:24.201Z,93.51
2023-03-30T09:43:25.373Z,93.87
2023-03-30T09:44:51.279Z,91.64
2023-03-30T09:45:27.733Z,92.25
2023-03-30T09:46:23.484Z,92.25
2023-03-30T09:47:23.501Z,91.80
2023-03-30T09:48:23.486Z,91.39
2023-03-30T09:49:23.980Z,91.60
2023-03-30T09:50:23.968Z,91.74
2023-03-30T09:51:23.209Z,91.33
2023-03-30T09:52:23.868Z,91.64
2023-03-30T09:53:23.247Z,91.94
2023-03-30T09:54:29.847Z,91.43
2023-03-30T09:55:23.698Z,91.99
2023-03-30T09:56:23.022Z,91.43
2023-03-30T09:57:23.031Z,91.78
2023-03-30T09:58:23.698Z,91.43
2023-03-30T09:59:22.904Z,91.58
2023-03-30T10:00:22.898Z,91.78
2023-03-30T10:01:22.873Z,91.99
2023-03-30T10:02:22.813Z,91.99
2023-03-30T10:03:22.965Z,91.58
2023-03-30T10:04:22.719Z,92.19
2023-03-30T10:05:22.629Z,91.78
2023-03-30T10:06:22.657Z,92.40
2023-03-30T10:07:22.592Z,92.49
2023-03-30T10:08:24.983Z,92.80
2023-03-30T10:09:22.485Z,92.60
2023-03-30T10:10:22.498Z,93.31
2023-03-30T10:11:22.426Z,92.60
2023-03-30T10:12:23.202Z,92.90
2023-03-30T10:13:22.286Z,93.21
2023-03-30T10:14:22.333Z,93.57
2023-03-30T10:15:22.252Z,93.26
2023-03-30T10:16:22.276Z,93.41
2023-03-30T10:17:22.164Z,93.77
2023-03-30T10:18:22.144Z,93.47
2023-03-30T10:19:22.087Z,93.06
2023-03-30T10:20:22.391Z,93.37
2023-03-30T10:21:21.970Z,92.45
2023-03-30T10:22:21.992Z,93.47
2023-03-30T10:23:21.953Z,92.35
2023-03-30T10:24:21.896Z,93.87
2023-03-30T10:25:21.855Z,92.96
2023-03-30T10:26:21.802Z,93.22
2023-03-30T10:27:21.756Z,93.06
2023-03-30T10:28:21.712Z,92.82
2023-03-30T10:29:21.680Z,93.02
2023-03-30T10:30:21.640Z,93.12
2023-03-30T10:31:21.643Z,92.71
2023-03-30T10:32:21.548Z,92.30
2023-03-30T10:33:21.515Z,92.71
2023-03-30T10:34:21.468Z,92.87
2023-03-30T10:35:21.415Z,92.26
2023-03-30T10:36:21.433Z,92.06
2023-03-30T10:37:21.388Z,91.51
2023-03-30T10:38:21.313Z,90.94
2023-03-30T10:39:21.314Z,91.20
2023-03-30T10:40:21.272Z,91.20
2023-03-30T10:41:21.207Z,90.35
2023-03-30T10:42:21.159Z,90.11
2023-03-30T10:43:21.155Z,89.25
2023-03-30T10:44:21.083Z,87.18
2023-03-30T10:45:21.047Z,86.83
2023-03-30T10:46:21.091Z,87.65
2023-03-30T10:47:21.082Z,86.05
2023-03-30T10:48:21.020Z,84.04
2023-03-30T10:49:20.929Z,81.88
2023-03-30T10:50:20.956Z,81.98
2023-03-30T10:51:20.855Z,82.59
2023-03-30T10:52:20.815Z,81.07
2023-03-30T10:53:20.808Z,82.49
2023-03-30T10:54:20.836Z,83.40
2023-03-30T10:55:20.677Z,81.98
2023-03-30T10:56:20.640Z,81.71
2023-03-30T10:57:20.693Z,81.96
2023-03-30T10:58:20.836Z,81.01
2023-03-30T10:59:20.526Z,80.46
2023-03-30T11:00:20.560Z,81.03
2023-03-30T11:01:20.558Z,79.62
2023-03-30T11:02:20.625Z,79.32
2023-03-30T11:03:20.431Z,78.57
2023-03-30T11:04:24.091Z,77.15
2023-03-30T11:05:21.314Z,78.13
2023-03-30T11:06:20.361Z,76.68
2023-03-30T11:07:20.279Z,75.74
2023-03-30T11:08:20.245Z,75.70
2023-03-30T11:09:20.224Z,75.26
2023-03-30T11:10:20.184Z,74.35
2023-03-30T11:11:20.159Z,74.55
2023-03-30T11:12:20.157Z,74.62
2023-03-30T11:13:20.118Z,72.88
2023-03-30T11:14:20.101Z,73.48
2023-03-30T11:15:20.065Z,73.75
2023-03-30T11:16:19.982Z,73.38
2023-03-30T11:17:19.935Z,72.37
2023-03-30T11:18:19.898Z,71.94
2023-03-30T11:19:19.950Z,71.70
2023-03-30T11:20:19.878Z,71.87
2023-03-30T11:21:19.851Z,71.73
2023-03-30T11:22:19.753Z,72.98
2023-03-30T11:23:19.763Z,73.55
2023-03-30T11:24:19.719Z,73.05
2023-03-30T11:25:19.707Z,73.79
2023-03-30T11:26:19.712Z,74.69
2023-03-30T11:27:19.641Z,74.69
2023-03-30T11:28:19.599Z,72.94
2023-03-30T11:29:19.538Z,72.81
2023-03-30T11:30:19.551Z,72.71
2023-03-30T11:31:19.503Z,72.64
2023-03-30T11:32:19.469Z,73.58
2023-03-30T11:33:19.443Z,73.52
2023-03-30T11:34:20.236Z,73.28
2023-03-30T11:35:19.424Z,72.67
2023-03-30T11:36:20.284Z,73.38
2023-03-30T11:37:20.961Z,72.38
2023-03-30T11:38:19.288Z,73.15
2023-03-30T11:39:31.596Z,73.32
2023-03-30T11:40:19.259Z,73.28
2023-03-30T11:41:19.748Z,72.58
2023-03-30T11:42:19.751Z,72.67
2023-03-30T11:43:19.215Z,71.53
2023-03-30T11:44:19.161Z,72.81
2023-03-30T11:45:19.066Z,71.40
2023-03-30T11:46:19.071Z,71.60
2023-03-30T11:47:19.812Z,71.23
2023-03-30T11:48:19.006Z,72.58
2023-03-30T11:49:19.946Z,72.88
2023-03-30T11:50:18.899Z,73.38
2023-03-30T11:51:18.936Z,73.25
2023-03-30T11:52:19.249Z,74.19
2023-03-30T11:53:18.839Z,74.22
2023-03-30T11:54:18.777Z,74.16
2023-03-30T11:55:18.827Z,74.66
2023-03-30T11:56:18.731Z,75.07
2023-03-30T11:57:18.735Z,76.15
2023-03-30T11:58:18.605Z,75.64
2023-03-30T11:59:18.568Z,75.88
2023-03-30T12:00:18.544Z,75.68
2023-03-30T12:01:18.563Z,76.48
2023-03-30T12:02:19.372Z,76.99
2023-03-30T12:03:18.582Z,76.93
2023-03-30T12:04:18.457Z,76.39
2023-03-30T12:05:18.441Z,76.02
2023-03-30T12:06:18.386Z,75.51
2023-03-30T12:07:18.290Z,75.61
2023-03-30T12:08:18.309Z,76.08
2023-03-30T12:09:18.256Z,77.13
2023-03-30T12:10:18.193Z,77.43
2023-03-30T12:11:18.155Z,77.13
2023-03-30T12:12:18.137Z,76.42
2023-03-30T12:13:18.158Z,77.64
2023-03-30T12:14:25.259Z,78.38
2023-03-30T12:15:18.003Z,78.92
2023-03-30T12:16:18.030Z,79.73
2023-03-30T12:17:17.932Z,80.64
2023-03-30T12:18:25.794Z,80.44
2023-03-30T12:19:17.961Z,81.18
2023-03-30T12:20:17.836Z,82.16
2023-03-30T12:21:17.876Z,81.01
2023-03-30T12:22:17.843Z,80.77
2023-03-30T12:23:17.707Z,80.73
2023-03-30T12:24:17.698Z,79.52
2023-03-30T12:25:17.631Z,79.32
2023-03-30T12:26:17.605Z,78.00
2023-03-30T12:27:17.552Z,77.36
2023-03-30T12:28:18.389Z,77.80
2023-03-30T12:30:17.449Z,77.80
2023-03-30T12:31:17.466Z,77.90
2023-03-30T12:32:17.383Z,78.41
2023-03-30T12:33:17.351Z,77.80
2023-03-30T12:34:17.315Z,79.21
2023-03-30T12:35:17.300Z,79.32
2023-03-30T12:36:17.232Z,79.15
2023-03-30T12:37:17.241Z,79.05
2023-03-30T12:38:19.216Z,80.91
2023-03-30T12:39:17.138Z,80.91
2023-03-30T12:40:17.151Z,80.71
2023-03-30T12:41:17.058Z,80.87
2023-03-30T12:42:17.015Z,80.46
2023-03-30T12:43:16.982Z,80.06
2023-03-30T12:44:16.963Z,79.66
2023-03-30T12:45:16.926Z,81.17
2023-03-30T12:46:16.975Z,80.77
2023-03-30T12:47:16.870Z,81.01
2023-03-30T12:48:16.893Z,82.02
2023-03-30T12:49:16.791Z,81.65
2023-03-30T12:50:16.758Z,82.22
2023-03-30T12:51:17.278Z,83.27
2023-03-30T12:52:16.696Z,84.33
2023-03-30T12:53:16.638Z,84.12
2023-03-30T12:54:16.586Z,82.90
2023-03-30T12:55:16.593Z,82.95
2023-03-30T12:56:16.522Z,82.64
2023-03-30T12:57:16.585Z,83.15
2023-03-30T12:58:16.431Z,82.62
2023-03-30T12:59:16.480Z,82.48
2023-03-30T13:00:16.469Z,83.33
2023-03-30T13:01:16.444Z,82.48
2023-03-30T13:02:16.356Z,82.24
2023-03-30T13:03:16.279Z,81.32
2023-03-30T13:04:16.292Z,80.68
2023-03-30T13:05:16.253Z,80.78
2023-03-30T13:06:16.158Z,80.71
2023-03-30T13:07:16.295Z,79.15
2023-03-30T13:08:16.102Z,77.73
2023-03-30T13:09:16.074Z,78.64
2023-03-30T13:10:16.068Z,77.50
2023-03-30T13:11:16.092Z,76.75
2023-03-30T13:12:16.906Z,75.74
2023-03-30T13:13:15.957Z,75.27
2023-03-30T13:14:15.869Z,75.68
2023-03-30T13:15:15.883Z,76.08
2023-03-30T13:16:15.833Z,76.18
2023-03-30T13:17:15.839Z,75.68
2023-03-30T13:18:15.787Z,76.89
2023-03-30T13:19:15.690Z,76.18
2023-03-30T13:20:29.344Z,76.35
2023-03-30T13:29:03.802Z,75.57
2023-03-30T13:30:02.845Z,75.98
2023-03-30T13:35:07.946Z,75.88
2023-03-30T13:46:16.107Z,77.43
2023-03-30T13:46:53.934Z,77.84
2023-03-30T13:51:07.232Z,76.59
2023-03-30T13:51:36.789Z,77.50
2023-03-30T14:02:06.030Z,76.79
2023-03-30T14:02:27.036Z,77.09
2023-03-30T14:03:51.314Z,76.39
2023-03-30T14:04:27.241Z,75.71
2023-03-30T14:05:27.649Z,76.12
2023-03-30T14:06:26.610Z,76.99
2023-03-30T14:09:00.593Z,75.95
2023-03-30T14:09:59.289Z,75.54
2023-03-30T14:11:13.951Z,75.98
2023-03-30T14:13:32.333Z,75.24
2023-03-30T14:14:32.461Z,74.87
2023-03-30T14:15:33.332Z,74.37
2023-03-30T14:16:32.041Z,74.26
2023-03-30T14:17:32.158Z,74.97
2023-03-30T14:18:31.924Z,75.88
2023-03-30T14:19:32.035Z,75.68
2023-03-30T14:20:31.960Z,76.08
2023-03-30T14:21:33.455Z,76.08
2023-03-30T14:22:31.924Z,75.74
2023-03-30T14:23:31.796Z,75.78
2023-03-30T14:24:32.197Z,75.57
2023-03-30T14:25:31.669Z,76.22
2023-03-30T14:26:31.727Z,76.72
2023-03-30T14:27:31.773Z,76.72
2023-03-30T14:28:30.854Z,77.37
2023-03-30T14:29:31.789Z,77.53
2023-03-30T14:30:30.639Z,77.67
2023-03-30T14:31:30.637Z,78.78
2023-03-30T14:32:30.634Z,80.34
2023-03-30T14:33:30.526Z,81.55
2023-03-30T14:34:30.514Z,83.37
2023-03-30T14:35:30.470Z,84.33
2023-03-30T14:36:30.453Z,83.72
2023-03-30T14:37:30.388Z,85.33
2023-03-30T14:48:43.072Z,86.08
2023-03-30T14:49:43.106Z,84.93
2023-03-30T14:50:43.030Z,84.83
2023-03-30T14:51:43.011Z,85.84
2023-03-30T14:52:45.214Z,83.92
2023-03-30T14:53:42.771Z,83.37
2023-03-30T14:57:27.633Z,81.76
2023-03-30T14:58:24.314Z,81.55
2023-03-30T14:59:27.917Z,81.85
2023-03-30T15:00:23.265Z,81.96
2023-03-30T15:01:23.434Z,80.98
2023-03-30T15:02:25.588Z,80.58
2023-03-30T15:03:32.784Z,81.29
2023-03-30T15:04:23.142Z,81.59
2023-03-30T15:05:23.626Z,81.49
2023-03-30T15:08:05.203Z,80.78
2023-03-30T15:09:05.366Z,81.59
2023-03-30T15:10:05.190Z,81.69
2023-03-30T15:11:05.288Z,81.49
2023-03-30T15:18:30.879Z,83.65
2023-03-30T15:19:29.552Z,83.41
2023-03-30T15:20:32.582Z,83.45
2023-03-30T15:21:34.361Z,82.60
2023-03-30T15:22:34.877Z,82.14
2023-03-30T15:23:46.319Z,82.70
2023-03-30T15:24:33.012Z,83.25
2023-03-30T15:25:30.287Z,83.15
2023-03-30T15:26:35.090Z,82.44
2023-03-30T15:27:33.381Z,83.15
2023-03-30T15:28:30.740Z,83.86
2023-03-30T15:29:28.555Z,83.15
2023-03-30T15:30:30.369Z,83.96
2023-03-30T15:37:35.859Z,89.61
2023-03-30T15:38:43.930Z,91.68
2023-03-30T15:40:45.916Z,91.08
2023-03-30T15:42:25.367Z,91.83
2023-03-30T15:43:24.768Z,91.26
2023-03-30T15:44:26.528Z,91.56
2023-03-30T15:47:12.508Z,93.19
2023-03-30T15:48:20.373Z,92.48
2023-03-30T15:49:07.839Z,93.55
2023-03-30T15:50:11.885Z,93.45
2023-03-30T15:51:11.624Z,93.96
2023-03-30T15:52:07.689Z,93.45
2023-03-30T15:53:08.562Z,93.96
2023-03-30T15:54:08.505Z,92.84
2023-03-30T15:55:10.519Z,92.33
2023-03-30T15:56:08.494Z,93.96
2023-03-30T15:57:12.931Z,93.35
2023-03-30T15:58:11.373Z,93.25
2023-03-30T15:59:08.069Z,92.84
2023-03-30T16:00:07.454Z,92.54
2023-03-30T16:01:07.647Z,91.73
2023-03-30T16:02:07.380Z,92.44
2023-03-30T16:03:07.557Z,91.42
2023-03-30T16:04:07.291Z,91.12
2023-03-30T16:05:07.179Z,91.12
2023-03-30T16:06:15.285Z,90.86
2023-03-30T16:07:07.912Z,90.41
2023-03-30T16:08:08.083Z,89.94
2023-03-30T16:09:09.897Z,89.80
2023-03-30T16:10:07.114Z,89.43
2023-03-30T16:11:07.221Z,89.90
2023-03-30T16:12:07.007Z,89.39
2023-03-30T16:13:07.421Z,89.09
2023-03-30T16:14:06.959Z,88.18
2023-03-30T16:15:08.381Z,88.68
2023-03-30T16:16:06.806Z,88.68
2023-03-30T16:17:07.387Z,87.97
2023-03-30T16:18:06.811Z,87.87
2023-03-30T16:19:07.714Z,87.81
2023-03-30T16:20:06.582Z,88.18
2023-03-30T16:21:06.822Z,88.42
2023-03-30T16:22:06.548Z,88.58
2023-03-30T16:23:06.468Z,88.58
2023-03-30T16:24:06.418Z,89.09
2023-03-30T16:25:10.090Z,88.18
2023-03-30T16:26:06.514Z,89.19
2023-03-30T16:27:06.340Z,88.28
2023-03-30T16:28:06.452Z,88.28
2023-03-30T16:29:06.239Z,88.48
2023-03-30T16:30:06.885Z,88.28
2023-03-30T16:31:10.417Z,88.62
2023-03-30T16:32:08.167Z,88.52
2023-03-30T16:33:06.164Z,89.70
2023-03-30T16:34:21.013Z,89.64
2023-03-30T16:35:07.107Z,89.74
2023-03-30T16:40:47.078Z,89.98
2023-03-30T16:41:47.145Z,89.78
2023-03-30T16:46:48.690Z,90.53
2023-03-30T16:47:44.911Z,89.92
2023-03-30T16:48:45.017Z,89.83
2023-03-30T16:49:43.498Z,90.13
2023-03-30T16:50:44.255Z,90.64
2023-03-30T17:06:55.228Z,94.90
2023-03-30T17:10:39.324Z,97.19
2023-03-30T17:11:48.021Z,96.78
2023-03-30T17:12:43.512Z,97.49
2023-03-30T17:13:38.444Z,97.08
2023-03-30T17:18:55.448Z,99.22